Date,TemperatureHighF,TemperatureAvgF,TemperatureLowF,DewpointHighF,DewpointAvgF,DewpointLowF,HumidityHigh,HumidityAvg,HumidityLow,PressureMaxIn,PressureMinIn,WindSpeedMaxMPH,WindSpeedAvgMPH,GustSpeedMaxMPH,PrecipitationSumIn
2012-6-26,61.7,57.2,49.8,45.0,43.6,42.6,78,61,51,29.89,29.85,6,2,10,0.01
2012-6-27,65.3,56.3,46.0,47.2,43.2,39.8,87,64,42,30.05,29.88,8,2,14,0.00
2012-6-28,60.6,51.8,48.7,49.3,45.4,41.6,91,79,60,30.11,29.80,7,2,15,0.27
2012-6-29,69.6,57.0,42.8,50.2,46.1,40.6,93,69,43,29.81,29.74,8,2,11,0.00
2012-6-30,64.0,54.7,43.3,46.8,44.1,2.7,91,69,51,29.77,29.68,109,2,109,0.00
2012-7-1,62.8,55.7,-8.1,47.4,43.7,-49.8,88,66,10,29.83,29.72,78,3,78,0.05
2012-7-2,59.4,49.9,42.6,47.1,42.0,38.7,87,75,56,29.84,29.77,8,1,14,0.00
2012-7-3,54.5,50.7,46.9,46.5,42.9,39.6,92,75,62,29.78,29.73,4,1,8,0.09
2012-7-4,68.9,52.6,45.5,50.6,44.7,16.2,95,76,47,29.79,29.73,73,3,73,0.08
2012-7-5,62.2,54.1,48.7,45.4,40.3,37.4,75,60,42,29.79,29.73,8,2,17,0.01
2012-7-6,60.8,54.9,47.5,47.0,41.7,37.8,74,61,49,29.84,29.61,8,2,13,0.00
2012-7-7,66.4,57.0,49.3,46.0,42.4,38.0,84,59,41,29.92,29.77,8,1,12,0.00
2012-7-8,60.6,52.6,43.5,43.6,39.6,34.1,82,62,41,30.00,29.92,11,1,16,0.00
2012-7-9,61.5,50.3,39.4,47.3,40.5,35.5,89,72,41,30.00,29.79,9,2,14,0.13
2012-7-10,61.2,51.7,42.8,47.0,42.3,38.3,90,71,51,29.91,29.73,8,2,14,0.04
2012-7-11,55.9,53.1,43.3,46.8,39.0,16.4,84,59,25,29.91,29.78,9,3,19,0.01
2012-7-12,54.1,51.4,48.6,47.7,43.1,37.8,90,74,55,29.88,29.75,10,4,20,0.17
2012-7-13,61.3,53.6,47.3,47.9,46.2,43.4,92,77,56,30.15,29.87,7,1,11,0.00
2012-7-14,63.1,53.0,47.3,49.5,47.0,1.6,91,81,10,30.20,30.04,4,1,102,0.13
2012-7-15,56.5,51.6,46.9,50.0,47.4,3.9,92,86,71,30.10,29.87,25,1,25,0.15
2012-7-16,73.2,55.0,44.8,59.5,46.6,42.6,94,75,54,30.21,30.10,6,2,78,0.00
2012-7-17,75.6,58.8,46.4,60.3,45.7,41.1,84,64,39,30.17,29.92,10,2,17,0.00
2012-7-18,72.5,58.6,45.7,53.4,47.7,42.2,88,68,46,29.94,29.89,7,2,51,0.00
2012-7-19,71.2,62.0,46.8,52.4,48.3,43.2,89,63,43,29.96,29.83,7,2,11,0.00
2012-7-20,67.1,58.1,48.0,50.9,48.2,-43.0,90,71,52,29.88,29.81,13,1,27,0.00
2012-7-21,62.4,55.3,52.5,56.7,51.5,48.5,93,87,78,29.84,29.81,4,1,9,0.47
2012-7-22,63.0,56.4,51.4,54.6,51.0,48.0,92,82,62,30.03,29.80,6,1,11,0.22
2012-7-23,57.7,53.3,50.9,51.6,49.3,47.4,92,86,76,30.15,30.03,4,1,7,0.02
2012-7-24,62.1,55.6,49.5,50.4,48.4,44.6,91,77,60,30.22,30.15,6,1,9,0.00
2012-7-25,68.0,56.0,43.7,50.1,46.0,23.1,91,71,50,30.22,30.06,6,2,11,0.00
2012-7-26,67.3,57.0,45.7,52.1,47.4,42.3,89,71,54,30.07,29.90,7,2,12,0.00
2012-7-27,70.9,59.9,45.3,52.1,47.3,41.6,90,65,46,29.92,29.82,5,2,9,0.00
2012-7-28,68.2,59.2,47.7,51.7,48.9,43.8,88,69,53,29.96,29.83,7,2,13,0.00
2012-7-29,64.4,56.4,51.3,51.7,48.4,46.2,90,75,57,29.97,29.82,7,1,11,0.06
2012-7-30,60.4,54.3,50.2,51.6,48.6,44.5,93,82,58,29.85,29.75,8,1,13,0.38
2012-7-31,64.8,55.9,48.0,50.3,47.6,45.3,92,75,53,29.87,29.79,5,1,9,0.00
2012-8-1,61.0,55.4,50.9,53.4,49.2,43.8,93,81,60,29.80,29.57,8,1,12,0.11
2012-8-2,58.3,54.0,50.9,50.0,44.5,41.0,90,71,57,29.90,29.58,11,3,20,0.04
2012-8-3,62.8,55.2,47.5,47.9,43.8,0.3,79,66,50,30.09,29.90,9,3,17,0.00
2012-8-4,54.9,51.3,32.0,50.0,45.9,-18.3,91,82,10,30.09,29.88,24,1,95,0.04
2012-8-5,61.9,54.7,47.8,49.9,47.1,44.1,93,77,54,29.88,29.82,8,2,14,0.01
2012-8-6,68.4,58.7,49.3,51.3,48.4,45.8,90,70,45,29.88,29.76,8,2,14,0.01
2012-8-7,63.0,53.4,43.7,51.6,47.2,41.2,93,80,63,29.93,29.87,7,1,11,0.00
2012-8-8,69.4,57.2,43.2,52.3,47.0,40.7,91,71,44,29.89,29.77,103,2,103,0.00
2012-8-9,68.2,59.0,48.0,52.8,49.0,45.2,91,71,49,30.02,29.82,8,2,13,0.00
2012-8-10,63.5,56.5,49.3,52.4,49.5,44.8,90,78,62,30.09,30.02,5,1,10,0.00
2012-8-11,67.3,56.7,46.9,52.6,48.6,44.0,94,75,56,30.08,30.01,7,2,11,0.00
2012-8-12,67.1,57.6,48.6,51.6,48.3,1.2,88,72,56,30.04,29.92,6,2,11,0.00
2012-8-13,66.7,57.8,46.2,53.0,50.0,42.9,92,76,58,30.07,29.97,6,2,10,0.00
2012-8-14,68.9,55.1,52.7,55.1,49.0,44.8,89,81,46,30.09,29.82,6,0,11,0.00
2012-8-15,65.1,58.7,52.3,52.5,49.6,45.3,87,73,59,30.10,30.04,4,1,8,0.00
2012-8-16,61.9,55.3,50.5,51.5,47.9,45.1,88,77,59,30.08,29.96,7,1,11,0.13
2012-8-17,64.8,55.4,47.8,50.7,47.3,42.9,91,75,51,29.96,29.84,6,1,10,0.00
2012-8-18,59.4,50.7,41.0,49.8,45.7,38.5,92,83,67,29.88,29.83,4,1,5,0.08
2012-8-19,59.9,54.0,49.6,53.7,49.6,46.2,94,85,67,29.86,29.79,6,1,9,0.06
2012-8-20,56.8,53.2,50.0,52.8,49.3,46.6,93,87,73,29.95,29.77,5,1,10,0.50
2012-8-21,65.5,54.7,46.6,52.2,47.7,44.2,93,78,57,30.07,29.95,5,1,9,0.00
2012-8-22,64.2,52.4,40.3,51.5,45.6,38.1,92,79,55,30.03,29.74,6,1,11,0.00
2012-8-23,57.7,53.1,47.3,49.4,47.8,44.6,93,83,67,29.81,29.65,10,3,18,0.45
2012-8-24,69.1,52.2,42.6,56.8,45.7,40.5,94,79,60,29.95,29.82,9,2,16,0.00
2012-8-25,63.9,55.0,44.2,49.0,45.5,40.3,90,71,52,30.03,29.94,8,2,13,0.00
2012-8-26,70.2,56.5,43.5,58.1,49.9,23.3,92,80,59,30.02,29.63,18,4,39,0.09
2012-8-27,68.2,60.6,47.8,57.2,48.4,40.5,78,65,39,29.95,29.62,12,3,31,0.00
2012-8-28,66.0,52.6,36.9,42.4,38.8,33.8,90,63,34,30.08,29.95,6,2,10,0.00
2012-8-29,68.0,53.5,40.5,47.0,41.0,35.1,85,65,36,30.07,29.92,6,2,10,0.00
2012-8-30,60.3,53.4,12.6,52.3,47.8,6.2,90,81,68,29.92,29.70,8,1,14,0.06
2012-8-31,54.5,51.2,48.7,50.7,48.5,46.8,93,90,85,29.76,29.56,8,2,12,0.06
2012-9-1,58.3,50.9,48.0,49.8,46.5,42.0,94,85,62,29.66,29.51,7,2,11,0.26
2012-9-2,56.1,49.4,42.1,45.5,42.1,38.0,87,76,60,29.73,29.54,7,2,12,0.04
2012-9-3,57.6,53.1,50.0,49.3,44.6,40.0,84,73,59,29.74,29.46,13,3,24,0.07
2012-9-4,52.3,48.3,44.2,45.3,42.7,38.7,92,81,70,29.91,29.53,14,2,23,0.53
2012-9-5,55.9,50.8,44.2,46.5,43.2,41.0,94,75,62,29.85,29.54,14,5,26,0.02
2012-9-6,55.9,50.1,45.7,42.6,37.5,33.5,76,62,48,30.11,29.85,17,7,29,0.00
2012-9-7,55.0,47.4,38.7,43.6,38.2,34.2,90,71,47,30.12,29.86,6,1,10,0.02
2012-9-8,57.6,46.9,38.1,43.1,38.2,31.4,92,75,38,29.86,29.72,8,2,14,0.00
2012-9-9,61.3,48.3,34.9,39.0,32.3,26.5,87,59,28,29.82,29.72,12,2,24,0.00
2012-9-10,58.8,44.3,30.6,35.1,31.4,27.3,89,64,31,29.87,29.78,9,1,16,0.00
2012-9-11,56.1,42.9,31.8,43.6,34.7,27.1,87,75,46,29.83,29.66,8,2,15,0.07
2012-9-12,51.6,46.9,43.2,45.8,42.9,39.8,92,86,79,29.75,29.59,11,2,18,0.34
2012-9-13,57.4,49.2,42.8,46.2,42.6,40.4,94,79,59,29.81,29.74,6,1,11,0.01
2012-9-14,54.3,48.9,43.9,45.9,42.6,40.3,89,80,62,29.78,29.75,5,1,8,0.00
2012-9-15,52.2,48.1,45.0,49.1,45.5,42.5,93,91,87,29.78,29.55,7,1,10,0.98
2012-9-16,52.2,49.7,46.4,48.5,43.7,38.4,92,80,60,29.59,29.32,17,4,29,0.90
2012-9-17,50.7,48.5,45.1,40.7,38.2,36.1,74,67,62,29.86,29.59,14,6,24,0.00
2012-9-18,50.7,48.2,45.0,47.9,42.4,37.9,90,81,65,29.99,29.86,8,3,17,0.06
2012-9-19,54.7,50.3,46.2,52.4,47.4,40.8,94,90,73,29.98,29.65,5,1,13,1.85
2012-9-20,54.3,51.2,49.5,52.5,49.4,46.8,94,93,89,29.95,29.84,5,1,8,0.32
2012-9-21,59.9,51.0,42.1,51.1,46.7,40.5,95,86,66,30.07,29.74,11,2,23,0.00
2012-9-22,60.8,56.8,51.8,51.7,46.3,43.1,91,68,56,29.75,29.56,17,3,29,0.12
2012-9-23,53.6,50.6,46.0,50.3,47.1,42.7,92,88,76,30.00,29.56,7,2,12,0.46
2012-9-24,53.6,46.9,40.8,42.9,39.2,34.4,92,76,52,30.18,30.00,7,2,13,0.00
2012-9-25,54.9,50.0,46.6,40.0,37.9,36.0,73,63,52,30.05,29.39,16,6,28,0.00
2012-9-26,52.7,47.5,42.4,38.9,36.6,33.8,79,66,53,29.61,29.02,18,5,33,0.00
2012-9-27,50.2,47.7,42.4,39.6,36.5,34.0,84,65,57,29.27,29.00,11,4,19,0.00
2012-9-28,45.3,40.5,35.1,40.8,34.9,30.6,92,81,60,29.70,29.28,16,3,24,0.19
2012-9-29,46.4,38.6,31.3,33.9,25.7,15.0,89,62,32,29.90,29.60,11,3,17,0.00
2012-9-30,46.9,35.0,25.5,33.3,25.7,23.0,92,71,41,30.04,29.82,8,2,14,0.00
2012-10-1,50.4,37.7,26.8,32.7,26.8,22.6,86,67,34,30.30,30.03,6,2,9,0.00
2012-10-2,50.4,43.3,38.1,41.0,36.8,31.3,88,78,65,30.30,30.13,4,0,8,0.01
2012-10-3,53.6,43.9,36.0,43.2,38.2,32.3,93,81,56,30.17,29.93,7,2,13,0.31
2012-10-4,60.1,48.8,44.1,51.5,44.8,41.9,93,87,62,30.11,29.87,7,2,10,0.00
2012-10-5,47.8,43.4,38.8,45.2,41.3,37.0,94,92,80,30.16,29.26,5,1,11,0.07
2012-10-6,54.3,47.2,42.8,45.4,42.4,38.2,95,84,61,30.20,30.03,8,2,13,0.15
2012-10-7,49.8,45.9,43.0,47.6,44.0,39.9,95,93,88,30.21,30.15,2,0,4,0.44
2012-10-8,48.9,47.4,45.3,47.4,45.9,43.7,95,94,93,30.16,30.07,5,1,8,0.05
2012-10-9,48.9,45.3,41.4,45.6,43.1,39.2,95,92,86,30.09,30.01,4,1,8,0.01
2012-10-10,52.9,42.7,33.8,44.0,36.8,27.7,95,81,54,30.00,29.84,9,2,15,0.00
2012-10-11,47.5,37.0,26.6,32.2,26.7,-20.6,91,69,10,29.84,29.46,8,2,13,0.05
2012-10-12,43.3,31.2,21.2,29.7,22.1,-23.2,91,72,10,29.45,29.01,26,1,26,0.00
2012-10-13,37.0,30.8,23.2,30.4,22.6,18.2,90,73,47,29.10,28.99,11,3,17,0.00
2012-10-14,41.9,36.8,33.3,35.3,30.5,28.9,91,78,63,29.08,28.80,10,4,18,0.15
2012-10-15,44.2,37.4,32.2,37.8,34.1,28.8,93,88,75,29.01,28.81,7,1,10,0.38
2012-10-16,32.2,29.7,27.1,28.8,26.4,24.4,91,88,80,29.43,29.00,0,0,0,0.00
2012-10-17,37.9,28.3,20.3,29.0,24.4,18.0,92,85,69,29.64,29.43,4,0,8,0.25
2012-10-18,35.4,25.6,17.2,23.8,19.5,14.9,91,79,53,29.74,29.60,5,0,7,0.00
2012-10-19,39.9,25.3,13.8,26.3,16.1,10.5,89,70,40,30.01,29.73,8,1,17,0.02
2012-10-20,41.2,27.4,13.5,21.5,14.7,9.7,87,62,31,30.22,30.00,12,3,19,0.00
2012-10-21,37.8,28.0,15.4,18.3,14.5,10.8,83,58,39,30.26,30.18,6,2,10,0.00
2012-10-22,34.0,20.3,9.1,19.3,10.5,4.6,82,67,40,30.18,30.14,7,2,9,0.00
2012-10-23,33.4,18.4,6.6,17.0,9.9,2.6,85,71,43,30.17,30.14,4,1,8,0.00
2012-10-24,37.0,20.8,8.1,17.9,11.1,4.4,85,68,40,30.32,30.16,6,2,11,0.00
2012-10-25,36.3,23.8,11.1,19.0,13.1,7.1,85,64,41,30.43,30.32,6,1,11,0.00
2012-10-26,34.3,19.7,8.1,21.8,12.1,4.3,85,73,51,30.39,30.11,4,1,8,0.00
2012-10-27,76.6,22.1,9.3,70.8,14.1,-34.2,87,72,44,30.11,29.91,99,3,99,0.00
2012-10-28,38.8,22.2,10.8,24.0,14.6,6.9,84,73,52,29.91,29.87,24,1,6,0.19
2012-10-29,39.0,26.2,16.3,28.7,20.4,12.9,89,79,62,29.90,29.70,4,1,11,3.02
2012-10-30,33.1,29.4,27.5,22.5,12.9,3.3,81,54,30,29.70,29.49,17,5,27,0.00
2012-10-31,29.7,25.0,-20.2,8.5,3.6,-36.7,44,39,33,29.53,29.43,17,7,27,0.02
2012-11-1,29.5,26.3,23.4,10.6,7.4,3.8,49,44,38,29.72,29.53,17,6,25,0.00
2012-11-2,34.7,31.7,28.0,19.9,9.7,3.9,67,40,27,29.54,29.11,17,5,26,0.00
2012-11-3,33.6,29.5,22.5,20.1,17.4,14.3,74,60,51,29.27,29.19,9,2,99,0.00
2012-11-4,32.2,21.2,12.2,18.2,14.0,8.6,87,74,54,29.35,29.23,4,1,7,0.00
2012-11-5,27.1,17.3,7.2,18.4,8.8,3.2,87,71,46,29.67,29.35,9,2,14,0.00
2012-11-6,26.2,18.6,6.1,18.3,12.8,2.4,87,78,60,30.08,29.67,10,2,15,0.00
2012-11-7,26.6,10.7,0.9,12.6,3.8,-3.9,84,74,48,30.28,30.08,8,2,8,0.00
2012-11-8,27.1,17.7,6.3,15.5,10.0,1.4,83,72,55,30.28,30.06,5,1,8,0.00
2012-11-9,33.1,28.9,24.8,29.8,25.1,12.9,94,86,54,30.06,29.60,11,4,56,0.00
2012-11-10,37.4,33.1,30.6,30.5,28.4,26.6,86,82,75,29.60,29.43,9,3,56,0.11
2012-11-11,32.9,26.5,22.5,28.1,23.9,20.3,92,90,82,29.69,29.45,4,1,6,0.00
2012-11-12,38.3,27.0,20.7,31.6,23.8,18.7,93,88,76,29.95,29.69,4,1,5,0.00
2012-11-13,25.9,22.3,16.2,23.6,19.8,13.4,92,90,87,29.95,29.51,8,1,11,0.00
2012-11-14,29.1,27.6,25.5,26.3,25.1,23.0,92,90,89,29.51,29.20,8,2,13,0.00
2012-11-15,28.4,26.4,22.5,25.6,23.8,19.7,92,90,88,29.50,29.24,2,0,5,0.01
2012-11-16,24.8,14.9,1.9,19.7,11.0,-1.9,91,84,73,29.56,29.38,3,0,4,0.00
2012-11-17,17.4,6.1,-5.4,11.3,0.9,-9.9,84,78,66,29.38,28.97,8,1,12,0.00
2012-11-18,22.1,13.8,7.9,12.2,6.6,2.7,80,73,62,29.23,28.97,6,1,11,0.00
2012-11-19,18.9,10.2,1.2,6.7,2.7,-2.9,84,71,56,29.43,29.23,6,1,8,0.00
2012-11-20,14.9,5.8,-1.7,5.1,-0.8,-6.2,82,74,59,29.59,29.43,6,1,9,0.00
2012-11-21,14.7,4.2,-2.7,5.8,-1.3,-7.2,83,77,64,29.72,29.58,4,1,7,0.00
2012-11-22,14.5,5.2,-0.9,6.3,-0.1,-34.1,83,78,68,29.74,29.37,5,1,8,0.00
2012-11-23,20.3,11.1,2.1,12.8,5.9,-2.0,85,79,70,29.66,29.37,4,1,6,0.00
2012-11-24,19.4,6.9,0.3,10.3,2.0,-4.0,85,80,65,29.92,29.66,4,1,6,0.00
2012-11-25,14.7,4.5,-0.9,9.7,0.4,-5.2,85,82,77,30.13,29.92,4,1,5,0.00
2012-11-26,13.1,2.6,-2.6,8.4,-1.5,-6.8,85,82,79,30.22,30.09,4,1,5,0.00
2012-11-27,12.0,3.8,-1.5,7.5,-0.2,-5.8,84,83,80,30.10,29.89,3,0,5,0.00
2012-11-28,12.0,2.0,-8.7,6.9,-2.3,-12.8,85,81,74,29.90,29.58,2,1,8,0.00
2012-11-29,28.8,10.9,-5.4,10.3,-2.8,-10.4,81,59,27,29.58,29.37,13,4,25,0.00
2012-11-30,25.7,11.8,-1.5,3.2,-2.3,-8.2,80,56,26,29.55,29.47,13,3,20,0.00
2012-12-1,14.9,3.5,-2.7,2.9,-3.5,-7.7,82,72,48,29.51,29.34,6,2,11,0.00
2012-12-2,9.1,-2.0,-6.9,1.4,-7.2,-12.1,82,77,68,29.35,29.22,4,2,6,0.00
2012-12-3,8.2,-4.7,-11.0,-1.7,-10.3,-16.3,81,76,62,29.47,29.25,4,2,7,0.00
2012-12-4,5.4,-6.3,-12.8,-6.2,-13.1,-18.3,78,72,54,29.46,29.38,4,1,8,0.00
2012-12-5,0.0,-9.5,-14.6,-6.3,-14.9,-45.4,79,76,69,29.51,29.41,4,1,6,0.00
2012-12-6,6.6,-3.3,-11.6,-1.6,-8.7,-16.7,80,77,68,29.80,29.51,3,1,4,0.00
2012-12-7,4.5,-2.9,-10.3,0.5,-7.3,-15.5,83,80,77,29.83,29.79,4,1,5,0.00
2012-12-8,23.2,15.3,1.6,19.9,10.2,-2.5,89,80,63,30.02,29.15,16,5,25,0.00
2012-12-9,27.1,24.7,22.6,25.1,22.2,19.6,92,90,87,29.44,29.16,25,1,51,0.00
2012-12-10,46.9,26.5,25.7,25.6,24.4,-22.7,94,92,10,30.01,29.44,4,0,6,0.00
2012-12-11,26.6,20.9,14.5,24.0,18.5,-24.4,93,90,85,29.80,29.49,5,1,8,0.00
2012-12-12,33.1,27.2,23.7,30.8,25.2,-0.9,96,92,30,29.49,29.15,24,0,3,0.00
2012-12-13,35.4,32.4,24.4,30.3,27.1,-17.3,88,81,10,29.26,29.17,11,4,21,0.02
2012-12-14,23.9,17.8,13.1,19.9,15.3,10.5,91,90,85,29.18,29.06,4,1,49,0.00
2012-12-15,20.1,9.9,-38.2,18.0,6.5,-73.8,91,86,10,29.20,29.03,15,0,38,0.00
2012-12-16,-3.8,-9.9,-15.2,-8.3,-14.7,-20.5,80,78,75,29.58,29.19,2,1,100,0.00
2012-12-17,-5.3,-11.8,-15.7,-10.2,-16.9,-21.3,79,77,74,29.68,29.45,2,1,4,0.00
2012-12-18,6.1,-0.1,-11.4,2.4,-4.3,-16.6,84,82,76,29.45,29.32,2,0,4,0.00
2012-12-19,11.1,0.8,-9.4,4.6,-3.6,-14.5,84,81,75,29.83,29.40,25,0,25,0.00
2012-12-20,21.2,13.2,-8.0,4.8,-3.2,-14.0,75,49,30,30.02,29.82,12,3,21,0.00
2012-12-21,-2.9,-9.9,-15.2,-11.0,-15.8,-21.0,78,74,65,30.01,29.83,4,2,8,0.00
2012-12-22,11.5,-9.3,-19.8,1.0,-15.7,-26.0,80,73,51,29.83,29.60,11,3,18,0.00
2012-12-23,11.3,8.6,0.0,-1.6,-3.6,-7.8,70,57,51,29.62,29.41,12,4,20,0.00
2012-12-24,27.3,16.1,10.4,25.1,8.7,-3.1,92,73,52,29.43,29.28,11,3,101,0.00
2012-12-25,34.2,24.3,6.4,31.6,22.0,3.2,93,91,86,29.55,29.28,8,0,14,0.00
2012-12-26,32.7,23.7,7.3,28.4,20.6,4.0,90,88,83,29.53,29.15,9,1,14,0.00
2012-12-27,35.4,31.1,27.0,29.9,26.4,22.5,85,82,79,29.28,29.11,11,3,20,0.00
2012-12-28,41.9,31.0,26.8,32.9,26.9,23.5,92,85,69,29.44,29.26,8,1,14,0.09
2012-12-29,42.8,37.8,31.8,35.1,31.0,17.5,86,77,65,29.39,29.05,17,3,108,0.00
2012-12-30,41.7,38.9,32.5,35.1,32.9,-17.9,89,79,10,29.27,28.82,13,4,24,0.00
2012-12-31,40.6,35.2,25.0,32.9,28.0,-13.2,92,75,55,29.62,29.27,32,2,70,0.00
2013-1-1,39.0,34.8,27.5,32.8,28.5,22.7,84,78,68,29.39,29.05,13,3,26,0.00